createdAt,value
2022-10-02T00:00:56.313Z,23.00
2022-10-02T00:02:56.365Z,22.99
2022-10-02T00:04:56.354Z,22.96
2022-10-02T00:06:56.260Z,22.99
2022-10-02T00:08:56.429Z,22.97
2022-10-02T00:10:56.478Z,22.95
2022-10-02T00:12:56.342Z,23.01
2022-10-02T00:14:56.362Z,22.96
2022-10-02T00:16:56.317Z,22.99
2022-10-02T00:18:56.334Z,22.92
2022-10-02T00:20:56.361Z,22.82
2022-10-02T00:22:56.309Z,22.91
2022-10-02T00:24:56.199Z,22.99
2022-10-02T00:26:56.349Z,23.09
2022-10-02T00:28:56.566Z,23.07
2022-10-02T00:30:56.271Z,23.06
2022-10-02T00:32:56.399Z,23.03
2022-10-02T00:34:56.367Z,23.17
2022-10-02T00:36:56.411Z,23.06
2022-10-02T00:38:56.393Z,23.10
2022-10-02T00:40:56.323Z,23.08
2022-10-02T00:42:56.376Z,23.03
2022-10-02T00:44:56.273Z,23.10
2022-10-02T00:46:56.318Z,23.08
2022-10-02T00:48:56.409Z,23.05
2022-10-02T00:50:56.267Z,23.06
2022-10-02T00:52:56.352Z,23.17
2022-10-02T00:54:56.402Z,23.13
2022-10-02T00:56:56.393Z,23.08
2022-10-02T00:58:56.306Z,23.04
2022-10-02T01:00:56.560Z,23.06
2022-10-02T01:02:56.420Z,23.10
2022-10-02T01:04:56.391Z,23.01
2022-10-02T01:06:56.346Z,23.06
2022-10-02T01:08:56.425Z,23.11
2022-10-02T01:10:56.363Z,23.13
2022-10-02T01:12:56.298Z,23.04
2022-10-02T01:14:56.414Z,23.06
2022-10-02T01:16:56.490Z,23.10
2022-10-02T01:18:56.440Z,23.08
2022-10-02T01:20:56.443Z,23.09
2022-10-02T01:22:56.404Z,23.07
2022-10-02T01:24:56.401Z,23.04
2022-10-02T01:26:56.440Z,23.06
2022-10-02T01:28:56.271Z,23.01
2022-10-02T01:30:57.470Z,23.02
2022-10-02T01:32:56.433Z,23.04
2022-10-02T01:34:56.366Z,23.09
2022-10-02T01:36:56.329Z,23.11
2022-10-02T01:38:56.501Z,23.06
2022-10-02T01:40:56.434Z,23.05
2022-10-02T01:42:56.472Z,23.05
2022-10-02T01:44:56.400Z,23.02
2022-10-02T01:46:56.295Z,23.06
2022-10-02T01:48:56.499Z,23.13
2022-10-02T01:50:56.439Z,23.08
2022-10-02T01:52:56.436Z,23.13
2022-10-02T01:54:56.473Z,23.03
2022-10-02T01:56:56.539Z,23.01
2022-10-02T01:58:56.485Z,23.05
2022-10-02T02:00:56.529Z,23.03
2022-10-02T02:02:56.308Z,23.01
2022-10-02T02:04:56.514Z,22.98
2022-10-02T02:06:56.461Z,23.05
2022-10-02T02:09:00.928Z,23.10
2022-10-02T02:10:56.452Z,23.05
2022-10-02T02:12:56.313Z,23.02
2022-10-02T02:14:56.508Z,23.03
2022-10-02T02:16:56.534Z,23.05
2022-10-02T02:18:56.474Z,23.03
2022-10-02T02:20:56.511Z,23.10
2022-10-02T02:22:56.453Z,23.00
2022-10-02T02:24:56.323Z,22.97
2022-10-02T02:26:56.446Z,23.01
2022-10-02T02:28:56.478Z,23.10
2022-10-02T02:30:56.501Z,22.88
2022-10-02T02:32:56.508Z,22.98
2022-10-02T02:34:56.464Z,23.01
2022-10-02T02:36:56.482Z,23.03
2022-10-02T02:38:56.357Z,23.01
2022-10-02T02:40:56.515Z,23.02
2022-10-02T02:42:56.499Z,23.01
2022-10-02T02:44:56.490Z,22.97
2022-10-02T02:46:56.520Z,22.99
2022-10-02T02:48:56.543Z,23.06
2022-10-02T02:50:56.429Z,23.02
2022-10-02T02:52:56.465Z,22.97
2022-10-02T02:54:56.534Z,22.96
2022-10-02T02:56:56.519Z,22.96
2022-10-02T02:58:56.456Z,22.96
2022-10-02T03:00:56.523Z,22.96
2022-10-02T03:02:56.532Z,22.87
2022-10-02T03:04:56.558Z,23.10
2022-10-02T03:06:56.600Z,23.02
2022-10-02T03:08:56.428Z,23.02
2022-10-02T03:10:56.455Z,23.12
2022-10-02T03:12:56.545Z,23.05
2022-10-02T03:14:56.461Z,23.06
2022-10-02T03:16:56.506Z,23.06
2022-10-02T03:18:56.553Z,23.05
2022-10-02T03:20:56.587Z,23.06
2022-10-02T03:22:56.560Z,23.02
2022-10-02T03:24:56.511Z,23.08
2022-10-02T03:26:56.565Z,23.11
2022-10-02T03:28:57.099Z,23.05
2022-10-02T03:30:56.360Z,23.02
2022-10-02T03:32:56.579Z,23.05
2022-10-02T03:34:56.562Z,23.06
2022-10-02T03:36:56.514Z,23.11
2022-10-02T03:39:19.904Z,23.03
2022-10-02T03:40:56.589Z,22.99
2022-10-02T03:42:56.495Z,22.86
2022-10-02T03:44:56.612Z,23.02
2022-10-02T03:46:56.654Z,23.00
2022-10-02T03:48:56.647Z,23.01
2022-10-02T03:50:56.590Z,23.09
2022-10-02T03:52:56.597Z,23.01
2022-10-02T03:54:56.613Z,23.03
2022-10-02T03:56:56.512Z,23.01
2022-10-02T03:58:56.578Z,23.05
2022-10-02T04:00:56.643Z,22.80
2022-10-02T04:02:56.626Z,22.78
2022-10-02T04:04:56.589Z,22.72
2022-10-02T04:06:56.583Z,22.78
2022-10-02T04:08:56.557Z,22.83
2022-10-02T04:10:56.579Z,22.81
2022-10-02T04:12:56.530Z,22.77
2022-10-02T04:14:56.561Z,22.72
2022-10-02T04:16:56.476Z,22.79
2022-10-02T04:18:56.633Z,22.74
2022-10-02T04:20:56.562Z,22.79
2022-10-02T04:22:56.545Z,22.70
2022-10-02T04:24:56.466Z,22.83
2022-10-02T04:26:56.619Z,22.68
2022-10-02T04:28:56.606Z,22.72
2022-10-02T04:30:56.637Z,22.96
2022-10-02T04:32:56.679Z,22.97
2022-10-02T04:34:56.608Z,22.99
2022-10-02T04:36:56.648Z,23.01
2022-10-02T04:38:56.599Z,23.04
2022-10-02T04:40:56.583Z,22.97
2022-10-02T04:42:56.588Z,23.01
2022-10-02T04:44:56.653Z,23.01
2022-10-02T04:46:56.659Z,23.01
2022-10-02T04:48:56.731Z,22.90
2022-10-02T04:50:56.678Z,22.96
2022-10-02T04:52:56.659Z,22.95
2022-10-02T04:54:56.671Z,22.94
2022-10-02T04:56:56.632Z,22.92
2022-10-02T04:58:56.678Z,22.96
2022-10-02T05:00:56.727Z,22.91
2022-10-02T05:02:56.659Z,22.88
2022-10-02T05:04:56.556Z,22.87
2022-10-02T05:06:56.594Z,22.88
2022-10-02T05:08:56.699Z,22.96
2022-10-02T05:10:56.653Z,22.96
2022-10-02T05:12:56.710Z,22.97
2022-10-02T05:14:56.569Z,22.96
2022-10-02T05:16:56.688Z,22.96
2022-10-02T05:18:56.721Z,22.96
2022-10-02T05:20:56.564Z,22.96
2022-10-02T05:22:56.687Z,22.97
2022-10-02T05:24:56.659Z,22.96
2022-10-02T05:26:56.604Z,22.97
2022-10-02T05:28:56.648Z,22.96
2022-10-02T05:30:56.925Z,22.96
2022-10-02T05:32:56.542Z,22.99
2022-10-02T05:34:56.681Z,22.96
2022-10-02T05:36:56.708Z,22.99
2022-10-02T05:38:56.593Z,22.92
2022-10-02T05:40:56.627Z,22.95
2022-10-02T05:42:56.653Z,22.96
2022-10-02T05:44:56.698Z,22.96
2022-10-02T05:46:56.672Z,22.96
2022-10-02T05:48:56.631Z,23.04
2022-10-02T05:50:56.613Z,22.97
2022-10-02T05:52:56.632Z,22.96
2022-10-02T05:54:56.634Z,22.96
2022-10-02T05:56:56.745Z,22.96
2022-10-02T05:58:56.729Z,22.96
2022-10-02T06:00:56.777Z,23.01
2022-10-02T06:02:56.802Z,22.95
2022-10-02T06:04:56.727Z,22.96
2022-10-02T06:06:56.737Z,22.95
2022-10-02T06:08:56.728Z,22.96
2022-10-02T06:10:56.775Z,22.96
2022-10-02T06:12:56.736Z,22.97
2022-10-02T06:14:56.623Z,22.94
2022-10-02T06:16:56.742Z,22.96
2022-10-02T06:18:56.737Z,22.96
2022-10-02T06:20:56.769Z,23.05
2022-10-02T06:22:56.774Z,23.05
2022-10-02T06:24:56.739Z,22.96
2022-10-02T06:26:56.789Z,22.95
2022-10-02T06:28:56.810Z,23.04
2022-10-02T06:30:56.656Z,23.00
2022-10-02T06:32:56.822Z,22.97
2022-10-02T06:34:56.724Z,22.98
2022-10-02T06:36:56.756Z,22.92
2022-10-02T06:38:56.602Z,22.90
2022-10-02T06:40:56.612Z,22.96
2022-10-02T06:42:56.742Z,22.96
2022-10-02T06:44:56.764Z,22.94
2022-10-02T06:46:56.804Z,22.96
2022-10-02T06:48:56.736Z,22.99
2022-10-02T06:50:56.736Z,22.99
2022-10-02T06:52:56.827Z,22.98
2022-10-02T06:54:56.795Z,22.99
2022-10-02T06:56:56.752Z,22.99
2022-10-02T06:58:56.741Z,23.06
2022-10-02T07:00:56.911Z,22.96
2022-10-02T07:02:56.735Z,22.99
2022-10-02T07:04:56.767Z,23.02
2022-10-02T07:06:56.787Z,23.02
2022-10-02T07:08:56.821Z,23.10
2022-10-02T07:10:56.810Z,23.02
2022-10-02T07:12:56.939Z,23.12
2022-10-02T07:14:56.708Z,23.06
2022-10-02T07:16:56.801Z,23.05
2022-10-02T07:18:56.704Z,23.03
2022-10-02T07:20:56.826Z,23.06
2022-10-02T07:22:56.818Z,23.06
2022-10-02T07:24:56.735Z,23.04
2022-10-02T07:26:56.843Z,23.10
2022-10-02T07:28:56.850Z,23.13
2022-10-02T07:30:56.744Z,22.96
2022-10-02T07:32:56.726Z,22.99
2022-10-02T07:34:56.831Z,22.95
2022-10-02T07:36:56.866Z,22.95
2022-10-02T07:38:56.812Z,23.10
2022-10-02T07:40:59.881Z,23.13
2022-10-02T07:42:56.839Z,23.11
2022-10-02T07:44:56.768Z,23.13
2022-10-02T07:46:56.849Z,23.02
2022-10-02T07:48:56.705Z,22.99
2022-10-02T07:50:56.664Z,23.09
2022-10-02T07:52:56.700Z,23.08
2022-10-02T07:54:56.880Z,23.08
2022-10-02T07:56:56.859Z,23.10
2022-10-02T07:58:56.885Z,23.09
2022-10-02T08:00:56.869Z,23.06
2022-10-02T08:02:56.855Z,22.99
2022-10-02T08:04:56.885Z,23.05
2022-10-02T08:06:56.895Z,23.11
2022-10-02T08:08:56.888Z,23.10
2022-10-02T08:10:56.857Z,23.03
2022-10-02T08:12:56.846Z,23.01
2022-10-02T08:14:56.799Z,23.10
2022-10-02T08:16:56.825Z,23.02
2022-10-02T08:18:56.885Z,23.06
2022-10-02T08:20:56.917Z,23.20
2022-10-02T08:22:56.896Z,23.21
2022-10-02T08:24:56.914Z,23.15
2022-10-02T08:26:56.861Z,23.09
2022-10-02T08:28:56.904Z,23.13
2022-10-02T08:30:56.926Z,23.20
2022-10-02T08:32:58.441Z,23.11
2022-10-02T08:34:56.811Z,23.06
2022-10-02T08:36:56.860Z,23.20
2022-10-02T08:38:56.817Z,23.11
2022-10-02T08:40:56.904Z,23.15
2022-10-02T08:42:56.768Z,23.15
2022-10-02T08:44:56.769Z,23.22
2022-10-02T08:46:56.925Z,23.17
2022-10-02T08:48:56.756Z,23.25
2022-10-02T08:50:56.884Z,23.25
2022-10-02T08:52:56.763Z,23.25
2022-10-02T08:54:56.898Z,23.25
2022-10-02T08:56:56.809Z,23.25
2022-10-02T08:58:56.910Z,23.19
2022-10-02T09:00:56.964Z,23.25
2022-10-02T09:02:56.885Z,23.25
2022-10-02T09:04:56.956Z,23.25
2022-10-02T09:06:56.916Z,23.25
2022-10-02T09:08:56.911Z,23.25
2022-10-02T09:10:56.792Z,23.17
2022-10-02T09:12:56.784Z,23.09
2022-10-02T09:14:58.752Z,23.20
2022-10-02T09:16:56.972Z,23.08
2022-10-02T09:18:56.950Z,23.22
2022-10-02T09:20:56.964Z,23.29
2022-10-02T09:22:56.957Z,23.31
2022-10-02T09:24:57.057Z,23.44
2022-10-02T09:26:56.881Z,23.51
2022-10-02T09:28:56.923Z,23.41
2022-10-02T09:30:57.004Z,23.44
2022-10-02T09:32:56.960Z,23.40
2022-10-02T09:34:56.840Z,23.50
2022-10-02T09:36:56.965Z,23.49
2022-10-02T09:38:56.972Z,23.53
2022-10-02T09:40:56.984Z,23.50
2022-10-02T09:42:57.013Z,23.38
2022-10-02T09:45:00.969Z,23.39
2022-10-02T09:46:56.973Z,23.39
2022-10-02T09:48:57.169Z,23.35
2022-10-02T09:50:57.014Z,23.40
2022-10-02T09:52:57.029Z,23.49
2022-10-02T09:54:56.876Z,23.25
2022-10-02T09:56:56.997Z,23.33
2022-10-02T09:58:57.065Z,23.25
2022-10-02T10:00:57.048Z,23.24
2022-10-02T10:02:56.963Z,23.17
2022-10-02T10:05:06.006Z,23.15
2022-10-02T10:06:56.871Z,23.24
2022-10-02T10:08:57.036Z,23.30
2022-10-02T10:10:56.934Z,23.37
2022-10-02T10:12:56.968Z,23.41
2022-10-02T10:14:56.997Z,23.53
2022-10-02T10:16:57.122Z,23.41
2022-10-02T10:18:57.020Z,23.45
2022-10-02T10:20:56.865Z,23.52
2022-10-02T10:22:56.912Z,23.65
2022-10-02T10:24:56.882Z,23.53
2022-10-02T10:26:57.019Z,23.53
2022-10-02T10:28:57.032Z,23.54
2022-10-02T10:30:57.014Z,23.49
2022-10-02T10:32:57.046Z,23.44
2022-10-02T10:34:56.923Z,23.47
2022-10-02T10:36:56.897Z,23.34
2022-10-02T10:38:57.047Z,23.31
2022-10-02T10:40:57.063Z,23.26
2022-10-02T10:43:07.413Z,23.22
2022-10-02T10:44:57.050Z,23.13
2022-10-02T10:46:56.971Z,23.20
2022-10-02T10:48:57.051Z,23.20
2022-10-02T10:50:57.078Z,23.21
2022-10-02T10:52:56.964Z,23.20
2022-10-02T10:54:57.080Z,23.19
2022-10-02T10:56:57.072Z,23.16
2022-10-02T10:58:57.042Z,23.12
2022-10-02T11:00:57.109Z,23.18
2022-10-02T11:02:57.029Z,23.18
2022-10-02T11:04:56.995Z,23.18
2022-10-02T11:06:57.062Z,23.22
2022-10-02T11:08:56.940Z,23.24
2022-10-02T11:10:56.948Z,23.25
2022-10-02T11:12:57.089Z,23.23
2022-10-02T11:14:57.086Z,23.34
2022-10-02T11:16:57.088Z,23.35
2022-10-02T11:18:56.961Z,23.52
2022-10-02T11:20:57.098Z,23.50
2022-10-02T11:22:57.075Z,23.49
2022-10-02T11:24:57.044Z,23.50
2022-10-02T11:26:57.028Z,23.58
2022-10-02T11:28:57.113Z,23.80
2022-10-02T11:30:57.118Z,23.92
2022-10-02T11:32:57.103Z,23.88
2022-10-02T11:34:57.091Z,23.93
2022-10-02T11:36:57.116Z,23.97
2022-10-02T11:38:57.119Z,23.98
2022-10-02T11:40:57.065Z,23.82
2022-10-02T11:42:57.002Z,23.76
2022-10-02T11:44:56.949Z,23.66
2022-10-02T11:46:57.018Z,23.62
2022-10-02T11:48:57.124Z,23.59
2022-10-02T11:50:57.026Z,23.78
2022-10-02T11:52:57.136Z,23.80
2022-10-02T11:54:56.959Z,23.90
2022-10-02T11:56:57.150Z,23.97
2022-10-02T11:58:57.126Z,23.96
2022-10-02T12:00:57.038Z,23.76
2022-10-02T12:02:57.205Z,23.59
2022-10-02T12:04:57.012Z,23.51
2022-10-02T12:06:57.128Z,23.50
2022-10-02T12:08:57.110Z,23.51
2022-10-02T12:10:57.134Z,23.37
2022-10-02T12:12:57.135Z,23.40
2022-10-02T12:14:57.204Z,23.44
2022-10-02T12:16:57.260Z,23.43
2022-10-02T12:18:57.129Z,23.47
2022-10-02T12:20:57.062Z,23.50
2022-10-02T12:22:57.203Z,23.39
2022-10-02T12:24:57.113Z,23.42
2022-10-02T12:26:57.250Z,23.39
2022-10-02T12:28:57.173Z,23.42
2022-10-02T12:30:57.073Z,23.38
2022-10-02T12:32:57.179Z,23.34
2022-10-02T12:34:57.070Z,23.45
2022-10-02T12:36:57.139Z,23.50
2022-10-02T12:38:57.125Z,23.41
2022-10-02T12:40:57.242Z,23.34
2022-10-02T12:42:57.106Z,23.26
2022-10-02T12:44:57.198Z,23.26
2022-10-02T12:46:57.159Z,23.34
2022-10-02T12:48:57.116Z,23.33
2022-10-02T12:50:59.190Z,23.57
2022-10-02T12:52:57.126Z,23.45
2022-10-02T12:54:57.154Z,23.43
2022-10-02T12:56:57.041Z,23.44
2022-10-02T12:58:57.097Z,23.53
2022-10-02T13:00:57.230Z,23.58
2022-10-02T13:03:01.313Z,23.69
2022-10-02T13:04:57.169Z,23.69
2022-10-02T13:06:57.187Z,23.76
2022-10-02T13:08:57.092Z,23.68
2022-10-02T13:10:57.116Z,23.70
2022-10-02T13:12:56.999Z,23.57
2022-10-02T13:14:57.233Z,23.57
2022-10-02T13:16:57.217Z,23.39
2022-10-02T13:18:57.180Z,23.39
2022-10-02T13:20:57.126Z,23.42
2022-10-02T13:22:57.246Z,23.33
2022-10-02T13:24:57.179Z,23.26
2022-10-02T13:26:57.237Z,23.25
2022-10-02T13:28:57.222Z,23.24
2022-10-02T13:30:57.192Z,23.27
2022-10-02T13:32:57.264Z,23.27
2022-10-02T13:34:57.227Z,23.42
2022-10-02T13:36:57.190Z,23.45
2022-10-02T13:38:57.194Z,23.48
2022-10-02T13:40:57.227Z,23.54
2022-10-02T13:42:57.264Z,23.52
2022-10-02T13:44:57.291Z,23.61
2022-10-02T13:46:57.244Z,23.52
2022-10-02T13:48:57.232Z,23.53
2022-10-02T13:50:57.248Z,23.39
2022-10-02T13:52:57.270Z,23.42
2022-10-02T13:54:57.288Z,23.37
2022-10-02T13:56:57.130Z,23.25
2022-10-02T13:58:57.234Z,23.23
2022-10-02T14:00:57.174Z,23.14
2022-10-02T14:02:57.106Z,23.18
2022-10-02T14:04:57.298Z,23.16
2022-10-02T14:06:57.195Z,23.25
2022-10-02T14:08:57.252Z,23.15
2022-10-02T14:10:57.208Z,23.17
2022-10-02T14:12:57.265Z,23.17
2022-10-02T14:14:57.127Z,23.17
2022-10-02T14:16:57.356Z,23.18
2022-10-02T14:18:57.151Z,23.12
2022-10-02T14:20:57.206Z,23.06
2022-10-02T14:22:57.316Z,23.13
2022-10-02T14:24:57.321Z,23.10
2022-10-02T14:26:57.183Z,23.06
2022-10-02T14:28:57.199Z,23.15
2022-10-02T14:30:57.281Z,23.04
2022-10-02T14:32:57.389Z,23.08
2022-10-02T14:34:57.292Z,23.08
2022-10-02T14:36:57.207Z,23.03
2022-10-02T14:38:57.224Z,23.05
2022-10-02T14:40:57.177Z,23.01
2022-10-02T14:42:57.262Z,23.03
2022-10-02T14:44:57.245Z,23.03
2022-10-02T14:46:57.325Z,23.05
2022-10-02T14:48:57.395Z,23.10
2022-10-02T14:50:57.268Z,23.12
2022-10-02T14:52:57.311Z,23.10
2022-10-02T14:54:57.323Z,23.10
2022-10-02T14:56:57.307Z,23.08
2022-10-02T14:58:57.290Z,23.06
2022-10-02T15:00:57.183Z,23.05
2022-10-02T15:02:57.362Z,23.13
2022-10-02T15:04:59.150Z,23.07
2022-10-02T15:06:57.265Z,22.99
2022-10-02T15:08:57.335Z,22.99
2022-10-02T15:10:57.244Z,23.03
2022-10-02T15:13:01.692Z,23.01
2022-10-02T15:14:57.313Z,23.11
2022-10-02T15:16:57.255Z,23.09
2022-10-02T15:18:57.258Z,23.05
2022-10-02T15:20:57.233Z,22.96
2022-10-02T15:22:57.402Z,22.99
2022-10-02T15:24:57.357Z,23.04
2022-10-02T15:26:57.277Z,22.96
2022-10-02T15:28:57.401Z,23.05
2022-10-02T15:30:57.416Z,22.96
2022-10-02T15:32:57.206Z,23.03
2022-10-02T15:34:57.309Z,22.95
2022-10-02T15:36:57.371Z,23.01
2022-10-02T15:38:57.264Z,22.97
2022-10-02T15:40:57.340Z,22.96
2022-10-02T15:42:58.631Z,22.96
2022-10-02T15:44:57.289Z,23.05
2022-10-02T15:46:57.320Z,22.95
2022-10-02T15:48:57.351Z,22.95
2022-10-02T15:50:57.332Z,22.96
2022-10-02T15:52:57.389Z,22.92
2022-10-02T15:54:57.313Z,22.96
2022-10-02T15:56:57.413Z,22.94
2022-10-02T15:58:57.360Z,22.93
2022-10-02T16:00:57.420Z,22.94
2022-10-02T16:02:57.383Z,23.04
2022-10-02T16:04:57.411Z,22.97
2022-10-02T16:06:57.255Z,22.95
2022-10-02T16:08:57.362Z,22.95
2022-10-02T16:10:57.407Z,22.93
2022-10-02T16:12:57.404Z,22.98
2022-10-02T16:14:57.249Z,22.96
2022-10-02T16:16:57.343Z,22.94
2022-10-02T16:18:57.300Z,22.93
2022-10-02T16:20:57.387Z,22.90
2022-10-02T16:22:57.448Z,22.96
2022-10-02T16:24:57.411Z,22.99
2022-10-02T16:26:57.403Z,22.96
2022-10-02T16:28:57.408Z,22.97
2022-10-02T16:30:57.406Z,22.95
2022-10-02T16:32:57.444Z,22.92
2022-10-02T16:34:57.383Z,22.95
2022-10-02T16:36:57.315Z,22.92
2022-10-02T16:38:57.331Z,22.94
2022-10-02T16:40:57.425Z,22.87
2022-10-02T16:42:57.464Z,22.88
2022-10-02T16:44:57.443Z,22.88
2022-10-02T16:46:57.436Z,22.96
2022-10-02T16:48:57.289Z,22.96
2022-10-02T16:50:57.445Z,22.87
2022-10-02T16:52:57.303Z,22.84
2022-10-02T16:54:57.456Z,22.95
2022-10-02T16:56:57.469Z,22.86
2022-10-02T16:59:01.273Z,22.96
2022-10-02T17:00:57.506Z,22.88
2022-10-02T17:02:57.478Z,22.90
2022-10-02T17:04:57.382Z,22.86
2022-10-02T17:06:57.486Z,22.86
2022-10-02T17:08:57.458Z,22.89
2022-10-02T17:10:57.449Z,22.87
2022-10-02T17:12:57.478Z,22.95
2022-10-02T17:14:57.441Z,22.92
2022-10-02T17:16:57.467Z,22.96
2022-10-02T17:18:57.562Z,22.91
2022-10-02T17:20:57.484Z,22.87
2022-10-02T17:22:57.446Z,22.95
2022-10-02T17:24:57.468Z,22.87
2022-10-02T17:26:57.512Z,22.95
2022-10-02T17:28:57.441Z,22.90
2022-10-02T17:30:57.372Z,22.87
2022-10-02T17:32:57.479Z,22.85
2022-10-02T17:34:57.349Z,22.96
2022-10-02T17:36:57.419Z,22.91
2022-10-02T17:38:57.509Z,22.87
2022-10-02T17:40:57.505Z,22.88
2022-10-02T17:42:57.496Z,22.90
2022-10-02T17:44:57.519Z,22.87
2022-10-02T17:46:57.477Z,22.89
2022-10-02T17:48:57.490Z,22.88
2022-10-02T17:50:57.468Z,22.96
2022-10-02T17:52:57.518Z,22.87
2022-10-02T17:54:57.541Z,22.69
2022-10-02T17:56:57.531Z,22.95
2022-10-02T17:58:57.526Z,22.83
2022-10-02T18:00:57.570Z,22.88
2022-10-02T18:02:57.519Z,22.95
2022-10-02T18:04:57.484Z,22.88
2022-10-02T18:06:57.501Z,22.92
2022-10-02T18:08:57.501Z,22.95
2022-10-02T18:10:57.506Z,22.85
2022-10-02T18:12:57.537Z,22.87
2022-10-02T18:14:57.456Z,22.87
2022-10-02T18:16:57.489Z,22.87
2022-10-02T18:18:57.501Z,22.88
2022-10-02T18:20:57.541Z,22.87
2022-10-02T18:22:57.586Z,22.84
2022-10-02T18:24:57.609Z,22.87
2022-10-02T18:26:57.419Z,22.93
2022-10-02T18:28:57.462Z,22.88
2022-10-02T18:30:57.437Z,22.87
2022-10-02T18:32:57.536Z,22.94
2022-10-02T18:34:57.408Z,22.84
2022-10-02T18:36:57.620Z,22.95
2022-10-02T18:39:01.230Z,22.85
2022-10-02T18:40:57.550Z,22.88
2022-10-02T18:42:57.584Z,22.91
2022-10-02T18:44:57.597Z,22.82
2022-10-02T18:46:57.573Z,22.88
2022-10-02T18:48:57.528Z,22.85
2022-10-02T18:50:57.540Z,22.95
2022-10-02T18:52:57.507Z,22.84
2022-10-02T18:54:57.587Z,22.92
2022-10-02T18:56:57.534Z,22.84
2022-10-02T18:58:57.608Z,22.68
2022-10-02T19:00:57.682Z,22.94
2022-10-02T19:02:57.495Z,22.83
2022-10-02T19:04:57.615Z,22.85
2022-10-02T19:06:57.573Z,22.91
2022-10-02T19:08:57.592Z,22.94
2022-10-02T19:10:57.574Z,22.82
2022-10-02T19:12:57.606Z,22.86
2022-10-02T19:14:57.554Z,22.95
2022-10-02T19:16:57.574Z,22.85
2022-10-02T19:18:57.541Z,22.83
2022-10-02T19:20:57.586Z,22.82
2022-10-02T19:22:57.625Z,22.88
2022-10-02T19:24:57.574Z,22.84
2022-10-02T19:26:57.624Z,22.92
2022-10-02T19:28:57.612Z,22.82
2022-10-02T19:30:57.651Z,22.88
2022-10-02T19:32:57.669Z,22.82
2022-10-02T19:34:57.639Z,22.92
2022-10-02T19:36:57.606Z,22.81
2022-10-02T19:38:57.578Z,22.80
2022-10-02T19:40:57.523Z,22.80
2022-10-02T19:42:57.613Z,22.77
2022-10-02T19:44:57.535Z,22.80
2022-10-02T19:46:57.549Z,22.83
2022-10-02T19:48:57.579Z,22.87
2022-10-02T19:50:57.505Z,22.77
2022-10-02T19:52:57.628Z,22.99
2022-10-02T19:54:57.512Z,22.82
2022-10-02T19:56:57.660Z,22.82
2022-10-02T19:58:57.536Z,22.84
2022-10-02T20:00:57.708Z,22.82
2022-10-02T20:02:57.671Z,22.88
2022-10-02T20:04:57.653Z,22.85
2022-10-02T20:06:57.671Z,22.82
2022-10-02T20:08:57.659Z,22.81
2022-10-02T20:10:57.639Z,22.82
2022-10-02T20:12:57.675Z,22.82
2022-10-02T20:14:57.620Z,22.81
2022-10-02T20:16:57.771Z,22.83
2022-10-02T20:18:57.700Z,22.78
2022-10-02T20:20:57.682Z,22.82
2022-10-02T20:22:57.527Z,22.82
2022-10-02T20:24:57.591Z,22.82
2022-10-02T20:26:57.635Z,22.90
2022-10-02T20:28:57.631Z,22.81
2022-10-02T20:30:57.706Z,22.81
2022-10-02T20:32:57.579Z,22.82
2022-10-02T20:34:57.698Z,22.79
2022-10-02T20:36:57.674Z,22.82
2022-10-02T20:38:57.596Z,22.78
2022-10-02T20:40:57.681Z,22.88
2022-10-02T20:42:57.621Z,22.84
2022-10-02T20:44:57.569Z,22.81
2022-10-02T20:46:57.629Z,22.78
2022-10-02T20:49:07.899Z,22.87
2022-10-02T20:50:57.550Z,22.76
2022-10-02T20:52:57.625Z,22.85
2022-10-02T20:54:57.672Z,22.78
2022-10-02T20:56:57.532Z,22.87
2022-10-02T20:58:57.619Z,22.77
2022-10-02T21:00:57.805Z,22.87
2022-10-02T21:02:57.734Z,22.84
2022-10-02T21:04:57.710Z,22.82
2022-10-02T21:06:57.732Z,22.79
2022-10-02T21:08:57.729Z,22.78
2022-10-02T21:10:57.710Z,22.77
2022-10-02T21:12:57.713Z,22.80
2022-10-02T21:14:57.744Z,22.87
2022-10-02T21:16:57.727Z,22.79
2022-10-02T21:18:57.792Z,22.83
2022-10-02T21:20:57.715Z,22.76
2022-10-02T21:22:57.748Z,22.79
2022-10-02T21:24:57.761Z,22.88
2022-10-02T21:26:57.709Z,22.73
2022-10-02T21:28:57.773Z,22.77
2022-10-02T21:30:57.843Z,22.82
2022-10-02T21:32:57.744Z,22.79
2022-10-02T21:34:57.774Z,22.81
2022-10-02T21:36:57.667Z,22.80
2022-10-02T21:38:57.612Z,22.79
2022-10-02T21:40:57.729Z,22.76
2022-10-02T21:42:57.733Z,22.74
2022-10-02T21:45:00.390Z,22.79
2022-10-02T21:46:57.659Z,22.76
2022-10-02T21:48:57.830Z,22.79
2022-10-02T21:50:57.741Z,22.78
2022-10-02T21:52:57.778Z,22.76
2022-10-02T21:54:57.788Z,22.85
2022-10-02T21:56:57.789Z,22.77
2022-10-02T21:58:57.725Z,22.87
2022-10-02T22:00:57.767Z,22.83
2022-10-02T22:02:57.695Z,22.83
2022-10-02T22:04:57.792Z,22.83
2022-10-02T22:06:57.778Z,22.78
2022-10-02T22:08:57.721Z,22.84
2022-10-02T22:10:57.747Z,22.77
2022-10-02T22:12:57.807Z,22.80
2022-10-02T22:14:57.765Z,22.73
2022-10-02T22:16:57.785Z,22.85
2022-10-02T22:18:57.795Z,22.73
2022-10-02T22:20:57.763Z,22.73
2022-10-02T22:22:57.806Z,22.77
2022-10-02T22:24:57.732Z,22.83
2022-10-02T22:26:57.823Z,22.77
2022-10-02T22:28:57.813Z,22.76
2022-10-02T22:30:57.847Z,22.76
2022-10-02T22:32:57.756Z,22.78
2022-10-02T22:34:57.824Z,22.78
2022-10-02T22:36:57.834Z,22.76
2022-10-02T22:38:57.716Z,22.72
2022-10-02T22:40:57.804Z,22.73
2022-10-02T22:42:57.842Z,22.82
2022-10-02T22:44:57.872Z,22.76
2022-10-02T22:46:57.798Z,22.71
2022-10-02T22:48:57.795Z,22.78
2022-10-02T22:50:57.778Z,22.79
2022-10-02T22:52:57.848Z,22.74
2022-10-02T22:54:57.821Z,22.74
2022-10-02T22:56:57.868Z,22.74
2022-10-02T22:58:57.893Z,22.79
2022-10-02T23:00:57.869Z,22.72
2022-10-02T23:02:57.814Z,22.71
2022-10-02T23:04:57.899Z,22.70
2022-10-02T23:06:57.849Z,22.74
2022-10-02T23:08:57.876Z,22.69
2022-10-02T23:10:57.733Z,22.74
2022-10-02T23:12:57.895Z,22.82
2022-10-02T23:14:57.798Z,22.76
2022-10-02T23:16:57.878Z,22.68
2022-10-02T23:18:57.826Z,22.79
2022-10-02T23:20:57.858Z,22.72
2022-10-02T23:22:57.723Z,22.74
2022-10-02T23:24:57.890Z,22.81
2022-10-02T23:26:57.879Z,22.70
2022-10-02T23:28:57.930Z,22.74
2022-10-02T23:30:57.862Z,22.76
2022-10-02T23:32:57.900Z,22.79
2022-10-02T23:34:57.808Z,22.72
2022-10-02T23:36:57.802Z,22.76
2022-10-02T23:38:57.770Z,22.69
2022-10-02T23:40:57.911Z,22.71
2022-10-02T23:42:57.897Z,22.74
2022-10-02T23:44:57.790Z,22.79
2022-10-02T23:46:57.900Z,22.81
2022-10-02T23:48:57.766Z,22.69
2022-10-02T23:50:57.938Z,22.71
2022-10-02T23:52:57.931Z,22.81
2022-10-02T23:54:57.911Z,22.71
2022-10-02T23:56:57.865Z,22.74
2022-10-02T23:58:57.873Z,22.76
